Time;durP1;ratioP1;P1;durP2;ratioP2;P2;SDS_P1;SDS_P2;PMS_P1;PMS_P2;Temp;Humidity;BMP_temperature;BMP_pressure;BME280_temperature;BME280_humidity;BME280_pressure;Samples;Min_cycle;Max_cycle;Signal;HPM_P1;HPM_P2
2022/08/04 00:01:11;;;;;;;6.30;3.40;;;25.90;1.00;;;;;;5091901;28;20191;-72
2022/08/04 00:04:20;;;;;;;4.37;3.30;;;25.80;1.00;;;;;;5098643;28;20175;-73
2022/08/04 00:06:59;;;;;;;8.10;3.77;;;25.70;1.00;;;;;;5089002;28;20276;-73
2022/08/04 00:09:45;;;;;;;5.80;3.40;;;25.60;1.00;;;;;;5101171;28;20232;-72
2022/08/04 00:12:14;;;;;;;4.73;3.67;;;25.50;1.00;;;;;;5071769;28;20196;-72
2022/08/04 00:14:47;;;;;;;5.17;3.30;;;25.40;1.00;;;;;;5071656;28;20709;-72
2022/08/04 00:17:15;;;;;;;5.10;3.80;;;25.20;1.00;;;;;;5072569;28;20436;-72
2022/08/04 00:19:46;;;;;;;6.60;4.23;;;25.10;1.00;;;;;;5072604;28;20243;-72
2022/08/04 00:22:12;;;;;;;6.83;4.17;;;25.20;1.00;;;;;;5071898;28;20978;-72
2022/08/04 00:24:40;;;;;;;5.23;3.57;;;25.10;1.00;;;;;;5072559;28;20455;-72
2022/08/04 00:27:07;;;;;;;4.50;3.70;;;25.10;1.00;;;;;;5091999;28;20437;-73
2022/08/04 00:29:34;;;;;;;5.10;4.17;;;25.10;1.00;;;;;;5091379;28;20941;-72
2022/08/04 00:32:02;;;;;;;4.87;3.97;;;25.00;1.00;;;;;;5094824;28;20443;-72
2022/08/04 00:34:30;;;;;;;5.67;4.10;;;25.00;1.00;;;;;;5104053;28;20451;-72
2022/08/04 00:36:57;;;;;;;5.43;3.73;;;25.00;1.00;;;;;;5095060;28;20504;-72
2022/08/04 00:39:24;;;;;;;6.00;4.10;;;24.90;1.00;;;;;;5092690;28;20413;-73
2022/08/04 00:42:19;;;;;;;8.63;3.90;;;24.90;1.00;;;;;;5091353;28;20417;-72
2022/08/04 00:45:06;;;;;;;8.83;3.87;;;24.80;1.00;;;;;;5087634;28;20496;-72
2022/08/04 00:47:58;;;;;;;4.23;3.63;;;24.80;1.00;;;;;;5092094;28;20776;-72
2022/08/04 00:50:36;;;;;;;10.93;4.37;;;24.70;1.00;;;;;;5091752;28;20393;-73
2022/08/04 00:53:16;;;;;;;9.20;4.20;;;24.70;1.00;;;;;;5091634;28;20556;-73
2022/08/04 00:56:00;;;;;;;8.07;4.23;;;24.50;1.00;;;;;;5086213;28;20410;-72
2022/08/04 00:59:14;;;;;;;6.57;3.87;;;24.50;1.00;;;;;;5090181;28;20401;-73
2022/08/04 01:02:06;;;;;;;5.80;3.70;;;24.40;1.00;;;;;;5069984;28;21126;-72
2022/08/04 01:04:54;;;;;;;6.63;3.80;;;24.40;1.00;;;;;;5095989;28;20405;-72
2022/08/04 01:07:43;;;;;;;4.70;4.10;;;24.50;1.00;;;;;;5091040;28;20425;-72
2022/08/04 01:10:12;;;;;;;10.13;3.87;;;24.30;1.00;;;;;;5090280;28;20954;-72
2022/08/04 01:13:05;;;;;;;6.87;4.10;;;24.30;1.00;;;;;;5090886;28;20459;-72
2022/08/04 01:15:36;;;;;;;6.23;3.87;;;24.30;1.00;;;;;;5091520;28;20429;-72
2022/08/04 01:18:07;;;;;;;4.50;3.80;;;24.20;1.00;;;;;;5091558;28;20389;-72
2022/08/04 01:20:47;;;;;;;5.87;4.03;;;24.20;1.00;;;;;;5091483;28;20770;-72
2022/08/04 01:23:40;;;;;;;11.43;4.23;;;24.10;1.00;;;;;;5091197;28;20774;-72
2022/08/04 01:26:23;;;;;;;11.30;4.67;;;24.10;1.00;;;;;;5091676;28;20482;-73
2022/08/04 01:29:10;;;;;;;5.67;4.00;;;24.10;1.00;;;;;;5091257;28;20397;-72
2022/08/04 01:31:57;;;;;;;6.80;4.30;;;23.90;1.00;;;;;;5089572;28;20498;-72
2022/08/04 01:34:29;;;;;;;4.93;4.27;;;24.10;1.00;;;;;;5102962;28;20484;-72
2022/08/04 01:37:25;;;;;;;5.80;4.03;;;24.40;1.00;;;;;;5095070;28;20425;-72
2022/08/04 01:40:00;;;;;;;5.00;3.20;;;24.20;1.00;;;;;;5091415;28;20409;-72
2022/08/04 01:42:29;;;;;;;4.80;4.10;;;24.40;1.00;;;;;;5090150;28;20791;-72
2022/08/04 01:44:57;;;;;;;5.40;3.60;;;24.40;1.00;;;;;;5091450;28;20424;-72
2022/08/04 01:47:27;;;;;;;4.40;3.67;;;24.70;1.00;;;;;;5089756;28;20863;-72
2022/08/04 01:49:57;;;;;;;4.73;3.60;;;24.90;1.00;;;;;;5090965;28;20432;-72
2022/08/04 01:52:23;;;;;;;5.90;3.60;;;25.40;1.00;;;;;;5090472;28;20766;-72
2022/08/04 01:54:50;;;;;;;4.30;3.30;;;25.30;1.00;;;;;;5090784;28;20413;-73
2022/08/04 01:57:17;;;;;;;9.23;3.80;;;25.50;1.00;;;;;;5090562;28;21035;-73
2022/08/04 01:59:45;;;;;;;9.37;3.47;;;25.70;1.00;;;;;;5091208;28;20883;-73
2022/08/04 02:02:10;;;;;;;5.47;3.20;;;25.90;1.00;;;;;;5094704;28;20791;-72
2022/08/04 02:04:37;;;;;;;9.17;3.40;;;26.10;1.00;;;;;;5101982;28;20420;-73
2022/08/04 02:07:02;;;;;;;9.47;3.70;;;26.10;1.00;;;;;;5111287;28;20186;-72
2022/08/04 02:09:46;;;;;;;4.37;3.50;;;26.30;1.00;;;;;;5110809;28;20689;-73
2022/08/04 02:12:14;;;;;;;4.60;3.40;;;26.40;1.00;;;;;;5110162;28;20214;-72
2022/08/04 02:15:21;;;;;;;4.03;3.03;;;26.60;1.00;;;;;;5111179;28;20194;-73
2022/08/04 02:18:14;;;;;;;4.73;3.27;;;26.60;1.00;;;;;;5110540;28;20908;-73
2022/08/04 02:20:47;;;;;;;6.93;3.50;;;26.60;1.00;;;;;;5109645;28;20751;-73
2022/08/04 02:23:30;;;;;;;4.70;3.20;;;26.40;1.00;;;;;;5110536;28;20650;-73
2022/08/04 02:26:11;;;;;;;7.13;3.70;;;26.20;1.00;;;;;;5095189;28;20771;-73
2022/08/04 02:28:47;;;;;;;8.30;3.27;;;26.10;1.00;;;;;;5090104;28;20225;-73
2022/08/04 02:31:27;;;;;;;10.30;3.67;;;26.00;1.00;;;;;;5089858;28;20191;-72
2022/08/04 02:34:08;;;;;;;6.73;4.00;;;25.90;1.00;;;;;;5099297;28;20657;-72
2022/08/04 02:36:39;;;;;;;6.10;3.60;;;25.90;1.00;;;;;;5110710;28;20946;-72
2022/08/04 02:39:07;;;;;;;4.13;3.30;;;25.80;1.00;;;;;;5109143;28;20176;-73
2022/08/04 02:41:33;;;;;;;5.70;3.43;;;25.80;1.00;;;;;;5110245;28;20266;-72
2022/08/04 02:44:01;;;;;;;8.03;3.53;;;25.90;1.00;;;;;;5110640;28;20269;-72
2022/08/04 02:46:28;;;;;;;7.03;3.20;;;26.10;1.00;;;;;;5110825;28;20645;-72
2022/08/04 02:48:55;;;;;;;3.67;3.17;;;26.30;1.00;;;;;;5109980;28;20227;-73
2022/08/04 02:51:29;;;;;;;4.97;3.20;;;26.40;1.00;;;;;;5109969;28;20685;-72
2022/08/04 02:53:56;;;;;;;5.43;3.80;;;26.50;1.00;;;;;;5110251;28;20189;-72
2022/08/04 02:56:24;;;;;;;6.10;3.43;;;26.60;1.00;;;;;;5093195;28;20207;-72
2022/08/04 02:58:58;;;;;;;4.10;3.13;;;26.50;1.00;;;;;;5090109;28;20170;-72
2022/08/04 03:01:24;;;;;;;6.47;3.30;;;26.60;1.00;;;;;;5088351;28;20195;-72
2022/08/04 03:04:11;;;;;;;4.43;3.30;;;26.70;1.00;;;;;;5099577;28;20228;-72
2022/08/04 03:07:00;;;;;;;4.23;3.30;;;26.40;1.00;;;;;;5088917;28;20557;-72
2022/08/04 03:09:47;;;;;;;5.60;3.70;;;26.60;1.00;;;;;;5069909;28;20237;-73
2022/08/04 03:12:51;;;;;;;4.40;3.30;;;26.50;1.00;;;;;;5068797;28;20187;-72
2022/08/04 03:15:44;;;;;;;4.87;3.30;;;26.50;1.00;;;;;;5070000;28;20183;-73
2022/08/04 03:18:28;;;;;;;7.47;3.20;;;26.50;1.00;;;;;;5071951;28;20168;-72
2022/08/04 03:21:31;;;;;;;6.37;3.60;;;26.50;1.00;;;;;;5073288;28;20566;-71
2022/08/04 03:24:20;;;;;;;4.67;3.20;;;26.40;1.00;;;;;;5073294;28;20590;-72
2022/08/04 03:27:20;;;;;;;8.00;3.47;;;26.40;1.00;;;;;;5072980;28;20192;-72
2022/08/04 03:30:07;;;;;;;4.40;3.50;;;26.40;1.00;;;;;;5072401;28;20195;-73
2022/08/04 03:32:43;;;;;;;5.00;3.37;;;26.30;1.00;;;;;;5096268;28;20277;-72
2022/08/04 03:35:40;;;;;;;4.60;3.57;;;26.30;1.00;;;;;;5098909;28;20648;-72
2022/08/04 03:38:33;;;;;;;4.30;3.40;;;26.30;1.00;;;;;;5086015;28;20218;-72
2022/08/04 03:41:19;;;;;;;5.63;3.50;;;26.30;1.00;;;;;;5091883;28;20270;-73
2022/08/04 03:44:03;;;;;;;5.40;3.77;;;26.30;1.00;;;;;;5093142;28;20175;-73
2022/08/04 03:46:38;;;;;;;7.77;3.73;;;26.30;1.00;;;;;;5093615;28;20171;-73
2022/08/04 03:49:35;;;;;;;4.30;3.00;;;26.30;1.00;;;;;;5093209;28;20174;-73
2022/08/04 03:56:05;;;;;;;8.70;3.67;;;26.30;1.00;;;;;;5093332;28;20236;-72
2022/08/04 03:58:49;;;;;;;3.70;3.20;;;26.20;1.00;;;;;;5092902;28;20163;-72
2022/08/04 04:01:36;;;;;;;5.90;3.40;;;26.20;1.00;;;;;;5092519;28;20427;-72
2022/08/04 04:04:29;;;;;;;5.90;3.40;;;26.30;1.00;;;;;;5092338;28;20175;-72
2022/08/04 04:07:22;;;;;;;5.20;3.30;;;26.20;1.00;;;;;;5093173;28;20175;-73
2022/08/04 04:10:09;;;;;;;5.03;3.60;;;26.20;1.00;;;;;;5092899;28;20203;-73
2022/08/04 04:13:03;;;;;;;6.00;3.20;;;26.20;1.00;;;;;;5091818;28;20225;-73
2022/08/04 04:16:12;;;;;;;5.43;3.20;;;26.20;1.00;;;;;;5091648;28;20167;-72
2022/08/04 04:18:59;;;;;;;5.83;3.27;;;26.20;1.00;;;;;;5090699;28;20266;-73
2022/08/04 04:21:35;;;;;;;3.70;3.03;;;26.10;1.00;;;;;;5092392;28;20421;-72
2022/08/04 04:24:32;;;;;;;3.63;3.13;;;26.00;1.00;;;;;;5092592;28;20409;-73
2022/08/04 04:27:07;;;;;;;3.63;3.00;;;26.00;1.00;;;;;;5091264;28;20417;-72
2022/08/04 04:29:41;;;;;;;4.67;3.00;;;26.10;1.00;;;;;;5090998;28;20178;-72
2022/08/04 04:32:39;;;;;;;5.70;3.17;;;26.10;1.00;;;;;;5095964;28;20209;-72
2022/08/04 04:35:20;;;;;;;3.97;3.00;;;26.10;1.00;;;;;;5097763;28;20953;-73
2022/08/04 04:38:13;;;;;;;4.03;2.90;;;26.10;1.00;;;;;;5100085;28;20505;-72
2022/08/04 04:40:58;;;;;;;6.80;3.20;;;26.10;1.00;;;;;;5092077;28;20171;-73
2022/08/04 04:43:50;;;;;;;6.73;3.43;;;26.20;1.00;;;;;;5091887;28;20179;-72
2022/08/04 04:46:39;;;;;;;3.60;3.00;;;26.20;1.00;;;;;;5092408;28;20557;-72
2022/08/04 04:49:28;;;;;;;5.93;3.20;;;26.30;1.00;;;;;;5091629;28;20171;-72
2022/08/04 04:52:01;;;;;;;3.87;2.67;;;26.30;1.00;;;;;;5088247;28;20742;-72
2022/08/04 04:54:42;;;;;;;3.63;3.07;;;26.30;1.00;;;;;;5091921;28;20194;-73
2022/08/04 04:57:18;;;;;;;5.83;3.37;;;26.30;1.00;;;;;;5089942;28;20167;-72
2022/08/04 04:59:53;;;;;;;5.40;3.00;;;26.20;1.00;;;;;;5081179;28;20167;-72
2022/08/04 05:02:53;;;;;;;4.40;3.30;;;26.20;1.00;;;;;;5090808;28;20189;-73
2022/08/04 05:05:42;;;;;;;5.23;3.30;;;26.20;1.00;;;;;;5100665;28;20197;-73
2022/08/04 05:08:34;;;;;;;5.73;3.20;;;26.20;1.00;;;;;;5111144;28;20645;-73
2022/08/04 05:11:10;;;;;;;6.00;3.27;;;26.20;1.00;;;;;;5112234;28;20610;-72
2022/08/04 05:13:46;;;;;;;5.27;3.30;;;26.20;1.00;;;;;;5112355;28;20222;-73
2022/08/04 05:16:38;;;;;;;5.00;3.23;;;26.30;1.00;;;;;;5112262;28;20162;-72
2022/08/04 05:19:23;;;;;;;4.67;3.43;;;26.30;1.00;;;;;;5109817;28;20217;-73
2022/08/04 05:21:55;;;;;;;5.90;3.60;;;26.40;1.00;;;;;;5110105;28;20190;-72
2022/08/04 05:24:22;;;;;;;4.37;3.07;;;26.50;1.00;;;;;;5112088;28;20689;-73
2022/08/04 05:26:54;;;;;;;7.60;3.10;;;26.50;1.00;;;;;;5111255;28;20225;-73
2022/08/04 05:29:36;;;;;;;5.40;3.13;;;26.60;1.00;;;;;;5112136;28;20166;-72
2022/08/04 05:32:11;;;;;;;5.40;3.20;;;26.60;1.00;;;;;;5101436;28;20847;-72
2022/08/04 05:34:43;;;;;;;8.27;3.03;;;26.60;1.00;;;;;;5102905;28;20194;-73
2022/08/04 05:37:16;;;;;;;6.80;3.27;;;26.70;1.00;;;;;;5090507;28;20199;-73
2022/08/04 05:39:54;;;;;;;3.97;2.70;;;26.80;1.00;;;;;;5090169;28;20534;-72
2022/08/04 05:42:21;;;;;;;5.10;3.30;;;26.90;1.00;;;;;;5090318;28;20560;-72
2022/08/04 05:44:47;;;;;;;4.10;3.30;;;26.90;1.00;;;;;;5091618;28;20175;-72
2022/08/04 05:47:14;;;;;;;3.80;2.70;;;26.90;1.00;;;;;;5090752;28;20166;-72
2022/08/04 05:49:40;;;;;;;4.47;3.10;;;27.10;1.00;;;;;;5090966;28;20171;-72
2022/08/04 05:52:06;;;;;;;3.43;2.80;;;27.20;1.00;;;;;;5090845;28;20665;-73
2022/08/04 05:54:34;;;;;;;4.93;3.20;;;27.30;1.00;;;;;;5089376;28;20195;-72
2022/08/04 05:57:03;;;;;;;7.87;3.17;;;27.30;1.00;;;;;;5090723;28;20167;-71
2022/08/04 05:59:30;;;;;;;3.27;2.60;;;27.40;1.00;;;;;;5091213;28;20664;-72
2022/08/04 06:01:58;;;;;;;4.63;2.90;;;27.50;1.00;;;;;;5091286;28;20194;-73
2022/08/04 06:04:31;;;;;;;5.00;2.90;;;27.60;1.00;;;;;;5102822;28;20208;-73
2022/08/04 06:06:56;;;;;;;5.83;3.07;;;27.60;1.00;;;;;;5109828;28;20170;-73
2022/08/04 06:09:22;;;;;;;7.33;3.03;;;27.70;1.00;;;;;;5110925;28;20261;-72
2022/08/04 06:11:50;;;;;;;5.80;3.10;;;27.80;1.00;;;;;;5110099;28;20190;-72
2022/08/04 06:14:19;;;;;;;3.80;3.00;;;27.80;1.00;;;;;;5111213;28;20190;-73
2022/08/04 06:16:46;;;;;;;4.20;3.10;;;27.90;1.00;;;;;;5109274;28;20166;-72
2022/08/04 06:19:14;;;;;;;3.90;3.03;;;28.00;1.00;;;;;;5111338;28;20166;-73
2022/08/04 06:21:47;;;;;;;4.67;2.83;;;28.10;1.00;;;;;;5110276;28;20182;-73
2022/08/04 06:24:18;;;;;;;4.27;2.67;;;28.10;1.00;;;;;;5111024;28;20553;-73
2022/08/04 06:26:45;;;;;;;4.70;2.83;;;28.20;1.00;;;;;;5090150;28;20198;-72
2022/08/04 06:29:21;;;;;;;5.80;2.93;;;28.20;1.00;;;;;;5090603;28;20695;-73
2022/08/04 06:31:57;;;;;;;7.57;3.17;;;28.20;1.00;;;;;;5091362;28;20290;-73
2022/08/04 06:34:24;;;;;;;6.87;3.20;;;28.20;1.00;;;;;;5101940;28;20736;-72
2022/08/04 06:36:50;;;;;;;4.17;2.80;;;28.20;1.00;;;;;;5091982;28;20175;-72
2022/08/04 06:39:16;;;;;;;3.43;2.80;;;28.30;1.00;;;;;;5090342;28;20163;-72
2022/08/04 06:41:43;;;;;;;4.83;3.20;;;28.40;1.00;;;;;;5089670;28;20243;-72
2022/08/04 06:44:10;;;;;;;6.97;3.40;;;28.50;1.00;;;;;;5090301;28;20175;-72
2022/08/04 06:46:39;;;;;;;7.30;3.10;;;28.60;1.00;;;;;;5090703;28;20578;-73
2022/08/04 06:49:05;;;;;;;7.10;2.93;;;28.70;1.00;;;;;;5089626;28;20174;-73
2022/08/04 06:51:33;;;;;;;4.30;2.90;;;28.70;1.00;;;;;;5091321;28;20187;-73
2022/08/04 06:53:58;;;;;;;6.63;3.37;;;28.80;1.00;;;;;;5094100;28;20248;-73
2022/08/04 06:56:26;;;;;;;8.90;3.30;;;28.90;1.00;;;;;;5089676;28;20631;-72
2022/08/04 06:58:53;;;;;;;3.60;2.80;;;29.00;1.00;;;;;;5092744;28;20174;-73
2022/08/04 07:01:20;;;;;;;4.50;2.93;;;29.00;1.00;;;;;;5093698;28;20199;-72
2022/08/04 07:03:47;;;;;;;4.60;3.17;;;29.00;1.00;;;;;;5103353;28;20611;-73
2022/08/04 07:06:13;;;;;;;6.05;3.60;;;29.10;1.00;;;;;;5114945;28;20163;-73
2022/08/04 07:08:39;;;;;;;3.70;3.20;;;29.20;1.00;;;;;;5111513;28;20174;-72
2022/08/04 07:11:05;;;;;;;6.80;3.60;;;29.30;1.00;;;;;;5075516;28;20187;-72
2022/08/04 07:13:31;;;;;;;6.50;3.60;;;29.50;1.00;;;;;;5073469;28;20715;-73
2022/08/04 07:15:59;;;;;;;4.03;2.95;;;29.60;1.00;;;;;;5074271;28;20709;-73
2022/08/04 07:18:25;;;;;;;7.93;3.35;;;29.80;1.00;;;;;;5072060;28;20262;-73
2022/08/04 07:20:51;;;;;;;4.93;3.55;;;29.70;1.00;;;;;;5073605;28;20725;-73
2022/08/04 07:23:22;;;;;;;8.07;3.60;;;29.30;1.00;;;;;;5072496;28;20176;-72
2022/08/04 07:25:54;;;;;;;5.63;3.97;;;29.90;1.00;;;;;;5072377;28;20215;-72
2022/08/04 07:28:27;;;;;;;7.60;4.03;;;30.10;1.00;;;;;;5073234;28;20229;-72
2022/08/04 07:30:55;;;;;;;7.80;3.90;;;30.30;1.00;;;;;;5073911;28;20680;-72
2022/08/04 07:33:21;;;;;;;13.90;4.15;;;30.30;1.00;;;;;;5101568;28;20222;-73
2022/08/04 07:35:50;;;;;;;6.75;4.07;;;30.70;1.00;;;;;;5102596;28;20424;-72
2022/08/04 07:38:16;;;;;;;13.05;3.80;;;30.80;1.00;;;;;;5093596;28;20168;-73
2022/08/04 07:40:41;;;;;;;6.40;3.38;;;30.80;1.00;;;;;;5093264;28;20704;-73
2022/08/04 07:43:08;;;;;;;5.80;3.47;;;30.80;1.00;;;;;;5092864;28;20183;-73
2022/08/04 07:45:34;;;;;;;8.23;3.83;;;31.00;1.00;;;;;;5093658;28;20178;-73
2022/08/04 07:48:02;;;;;;;9.13;3.80;;;31.10;1.00;;;;;;5093454;28;20171;-73
2022/08/04 07:50:28;;;;;;;10.35;4.05;;;31.40;1.00;;;;;;5093320;28;20273;-73
2022/08/04 07:52:54;;;;;;;8.23;4.07;;;31.30;1.00;;;;;;5092814;28;20245;-73
2022/08/04 07:55:21;;;;;;;11.10;4.18;;;31.30;1.00;;;;;;5091553;28;20213;-72
2022/08/04 07:57:46;;;;;;;8.32;3.75;;;31.40;1.00;;;;;;5093170;28;20175;-73
2022/08/04 08:00:15;;;;;;;6.95;4.47;;;31.60;1.00;;;;;;5093445;28;20159;-73
2022/08/04 08:02:42;;;;;;;6.72;4.15;;;31.60;1.00;;;;;;5099562;28;20202;-73
2022/08/04 08:05:13;;;;;;;4.43;3.70;;;31.70;1.00;;;;;;5105918;28;20616;-73
2022/08/04 08:07:38;;;;;;;7.15;4.20;;;31.70;1.00;;;;;;5113746;28;20170;-73
2022/08/04 08:10:10;;;;;;;6.25;3.78;;;31.80;1.00;;;;;;5113088;28;20178;-73
2022/08/04 08:12:36;;;;;;;8.13;4.10;;;32.20;1.00;;;;;;5112373;28;20273;-73
2022/08/04 08:15:02;;;;;;;5.55;3.60;;;32.50;1.00;;;;;;5113447;28;20254;-73
2022/08/04 08:17:28;;;;;;;5.65;3.70;;;32.70;1.00;;;;;;5112823;28;20645;-73
2022/08/04 08:19:53;;;;;;;7.00;3.58;;;32.90;1.00;;;;;;5113193;28;20200;-73
2022/08/04 08:22:19;;;;;;;7.53;4.15;;;33.10;1.00;;;;;;5111240;28;20640;-73
2022/08/04 08:24:44;;;;;;;12.85;4.03;;;34.60;1.00;;;;;;5109424;28;20266;-72
2022/08/04 08:27:10;;;;;;;6.55;4.13;;;33.60;1.00;;;;;;5092054;28;20665;-73
2022/08/04 08:29:38;;;;;;;6.85;3.70;;;33.60;1.00;;;;;;5093178;28;20649;-73
2022/08/04 08:32:11;;;;;;;5.40;3.90;;;33.90;1.00;;;;;;5094178;28;20202;-73
2022/08/04 08:34:37;;;;;;;9.50;4.20;;;34.20;1.00;;;;;;5104266;28;20556;-73
2022/08/04 08:37:06;;;;;;;7.63;3.60;;;34.40;1.00;;;;;;5096988;28;20167;-73
2022/08/04 08:39:44;;;;;;;11.00;4.00;;;35.00;1.00;;;;;;5092360;28;20695;-73
2022/08/04 08:42:35;;;;;;;5.95;4.20;;;35.80;1.00;;;;;;5090183;28;20191;-73
2022/08/04 08:45:18;;;;;;;9.68;3.50;;;37.40;1.00;;;;;;5091486;28;20676;-73
2022/08/04 08:48:15;;;;;;;4.45;3.83;;;38.30;1.00;;;;;;5092056;28;20212;-74
2022/08/04 08:50:50;;;;;;;5.45;3.70;;;38.80;1.00;;;;;;5092074;28;20171;-73
2022/08/04 08:53:35;;;;;;;9.40;4.10;;;39.10;1.00;;;;;;5091432;28;20198;-74
2022/08/04 08:56:32;;;;;;;8.90;3.10;;;38.90;1.00;;;;;;5086773;28;20250;-74
2022/08/04 08:59:33;;;;;;;9.52;3.95;;;40.40;1.00;;;;;;5091431;28;20171;-74
2022/08/04 09:02:41;;;;;;;6.40;3.60;;;41.70;1.00;;;;;;5094130;28;20218;-74
2022/08/04 09:05:41;;;;;;;16.58;3.42;;;42.40;1.00;;;;;;5097240;28;20176;-74
2022/08/04 09:08:19;;;;;;;8.55;3.55;;;42.60;1.00;;;;;;5112614;28;20265;-74
2022/08/04 09:10:52;;;;;;;6.88;3.20;;;42.90;1.00;;;;;;5112281;28;20257;-75
2022/08/04 09:13:42;;;;;;;7.20;3.83;;;43.10;1.00;;;;;;5111855;28;20283;-75
2022/08/04 09:16:23;;;;;;;4.72;3.67;;;42.50;1.00;;;;;;5090009;28;20175;-75
2022/08/04 09:19:22;;;;;;;7.72;4.20;;;43.10;1.00;;;;;;5090892;28;20211;-75
2022/08/04 09:21:57;;;;;;;7.72;3.80;;;42.50;1.00;;;;;;5091341;28;20198;-75
2022/08/04 09:24:44;;;;;;;5.13;3.53;;;42.90;1.00;;;;;;5091790;28;20170;-75
2022/08/04 09:27:24;;;;;;;4.93;3.97;;;42.80;1.00;;;;;;5091502;28;20184;-75
2022/08/04 09:30:15;;;;;;;5.18;4.10;;;43.00;1.00;;;;;;5092594;28;20209;-75
2022/08/04 09:32:49;;;;;;;4.63;3.70;;;43.00;1.00;;;;;;5099681;28;20267;-75
2022/08/04 09:35:22;;;;;;;4.88;4.10;;;43.70;1.00;;;;;;5104155;28;20265;-75
2022/08/04 09:37:59;;;;;;;8.38;3.80;;;44.30;1.00;;;;;;5089532;28;20288;-75
2022/08/04 09:40:47;;;;;;;6.63;3.55;;;45.00;1.00;;;;;;5091043;28;20175;-75
2022/08/04 09:43:31;;;;;;;6.13;4.03;;;46.10;1.00;;;;;;5090482;28;20514;-75
2022/08/04 09:46:21;;;;;;;5.43;3.85;;;46.00;1.00;;;;;;5091462;28;20262;-75
2022/08/04 09:49:00;;;;;;;4.95;3.80;;;45.80;1.00;;;;;;5090367;28;20501;-75
2022/08/04 09:51:52;;;;;;;5.45;3.63;;;46.40;1.00;;;;;;5090612;28;20199;-75
2022/08/04 09:54:27;;;;;;;5.10;3.70;;;46.60;1.00;;;;;;5089570;28;20498;-75
2022/08/04 09:56:56;;;;;;;5.00;4.07;;;46.50;1.00;;;;;;5089405;28;20170;-75
2022/08/04 09:59:31;;;;;;;5.35;3.63;;;46.00;1.00;;;;;;5091590;28;20164;-75
2022/08/04 10:02:01;;;;;;;4.93;3.67;;;46.30;1.00;;;;;;5093282;28;20246;-75
2022/08/04 10:04:30;;;;;;;6.53;3.95;;;46.70;1.00;;;;;;5102315;28;20185;-75
2022/08/04 10:07:23;;;;;;;5.38;3.80;;;46.90;1.00;;;;;;5109962;28;20171;-74
2022/08/04 10:10:07;;;;;;;4.18;3.28;;;47.00;1.00;;;;;;5111083;28;20170;-75
2022/08/04 10:12:54;;;;;;;8.40;3.80;;;47.60;1.00;;;;;;5110275;28;20191;-75
2022/08/04 10:16:03;;;;;;;3.50;3.20;;;47.90;1.00;;;;;;5111188;28;20178;-76
2022/08/04 10:18:29;;;;;;;7.28;3.55;;;47.50;1.00;;;;;;5110237;28;20173;-75
2022/08/04 10:21:01;;;;;;;5.22;3.33;;;48.10;1.00;;;;;;5110760;28;20174;-75
2022/08/04 10:23:45;;;;;;;4.88;3.05;;;48.60;1.00;;;;;;5110510;28;20640;-75
2022/08/04 10:26:26;;;;;;;7.82;3.40;;;48.90;1.00;;;;;;5092737;28;20187;-75
2022/08/04 10:29:13;;;;;;;13.00;3.13;;;49.50;1.00;;;;;;5090254;28;20167;-74
2022/08/04 10:31:46;;;;;;;6.10;3.20;;;49.80;1.00;;;;;;5090437;28;20209;-74
2022/08/04 10:34:26;;;;;;;4.47;3.40;;;48.80;1.00;;;;;;5097062;28;20512;-74
2022/08/04 10:36:59;;;;;;;8.02;2.90;;;48.80;1.00;;;;;;5090671;28;20205;-73
2022/08/04 10:43:46;;;;;;;4.72;3.15;;;49.00;1.00;;;;;;5076900;28;20201;-74
2022/08/04 10:46:23;;;;;;;7.68;3.58;;;48.60;1.00;;;;;;5067774;28;20728;-74
2022/08/04 10:48:56;;;;;;;5.15;3.10;;;49.00;1.00;;;;;;5066860;28;20715;-75
2022/08/04 10:51:58;;;;;;;6.68;2.85;;;49.50;1.00;;;;;;5083351;28;20352;-74
2022/08/04 10:54:48;;;;;;;3.92;3.15;;;50.30;1.00;;;;;;5078349;28;20318;-74
2022/08/04 10:57:35;;;;;;;5.82;2.92;;;50.90;1.00;;;;;;5084720;28;20198;-75
2022/08/04 11:00:13;;;;;;;5.35;2.85;;;50.70;1.00;;;;;;5090501;28;20544;-75
2022/08/04 11:02:55;;;;;;;4.47;3.00;;;50.10;1.00;;;;;;5097408;28;20600;-75
2022/08/04 11:05:46;;;;;;;9.60;3.22;;;50.70;1.00;;;;;;5104933;28;20174;-75
2022/08/04 11:08:16;;;;;;;6.88;3.00;;;50.30;1.00;;;;;;5110779;28;20162;-75
2022/08/04 11:10:51;;;;;;;6.45;3.15;;;50.50;1.00;;;;;;5110112;28;20709;-75
2022/08/04 11:13:18;;;;;;;5.18;3.20;;;50.20;1.00;;;;;;5109947;28;20234;-75
2022/08/04 11:15:54;;;;;;;6.60;2.95;;;50.30;1.00;;;;;;5110589;28;20163;-75
2022/08/04 11:18:35;;;;;;;8.60;3.40;;;50.30;1.00;;;;;;5106202;28;20522;-75
2022/08/04 11:21:10;;;;;;;5.25;2.42;;;50.50;1.00;;;;;;5089412;28;20187;-74
2022/08/04 11:23:39;;;;;;;5.45;2.60;;;50.70;1.00;;;;;;5089620;28;20159;-75
2022/08/04 11:26:28;;;;;;;5.00;2.70;;;51.00;1.00;;;;;;5090042;28;20164;-74
2022/08/04 11:29:10;;;;;;;2.85;2.22;;;50.60;1.00;;;;;;5089769;28;20178;-75
2022/08/04 11:31:42;;;;;;;4.25;2.22;;;51.00;1.00;;;;;;5089552;28;20198;-75
2022/08/04 11:34:21;;;;;;;2.60;2.10;;;51.40;1.00;;;;;;5099591;28;20226;-75
2022/08/04 11:37:13;;;;;;;2.60;2.17;;;51.20;1.00;;;;;;5094976;28;20589;-74
2022/08/04 11:39:47;;;;;;;3.63;2.25;;;51.80;1.00;;;;;;5092631;28;20171;-75
2022/08/04 11:42:19;;;;;;;3.72;2.13;;;52.50;1.00;;;;;;5092690;28;20187;-75
2022/08/04 11:45:03;;;;;;;4.47;2.05;;;52.60;1.00;;;;;;5093818;28;20180;-75
2022/08/04 11:47:38;;;;;;;4.88;1.90;;;52.60;1.00;;;;;;5093246;28;20164;-75
2022/08/04 11:50:22;;;;;;;4.40;1.80;;;52.60;1.00;;;;;;5093298;28;20188;-75
2022/08/04 11:52:50;;;;;;;3.72;1.98;;;52.90;1.00;;;;;;5092707;28;20192;-75
2022/08/04 11:55:20;;;;;;;4.10;2.28;;;53.50;1.00;;;;;;5093312;28;20231;-75
2022/08/04 11:57:46;;;;;;;2.88;1.75;;;53.90;1.00;;;;;;5093080;28;20182;-75
2022/08/04 12:00:14;;;;;;;2.60;1.90;;;54.00;1.00;;;;;;5093406;28;20203;-75
2022/08/04 12:03:17;;;;;;;2.92;1.63;;;54.20;1.00;;;;;;5099206;28;20247;-75
2022/08/04 12:06:05;;;;;;;1.90;1.38;;;53.90;1.00;;;;;;5110962;28;20178;-75
2022/08/04 12:08:57;;;;;;;3.28;1.65;;;53.90;1.00;;;;;;5113217;28;20239;-75
2022/08/04 12:11:47;;;;;;;2.28;1.70;;;53.30;1.00;;;;;;5113081;28;20659;-75
2022/08/04 12:14:28;;;;;;;2.63;1.70;;;53.00;1.00;;;;;;5113604;28;20202;-75
2022/08/04 12:17:03;;;;;;;6.80;2.10;;;52.50;1.00;;;;;;5113155;28;20168;-75
2022/08/04 12:19:41;;;;;;;2.28;1.70;;;52.90;1.00;;;;;;5113031;28;20161;-75
2022/08/04 12:22:18;;;;;;;2.30;1.80;;;53.40;1.00;;;;;;5112529;28;20260;-74
2022/08/04 12:25:13;;;;;;;4.55;1.70;;;53.40;1.00;;;;;;5107627;28;20182;-75
2022/08/04 12:28:03;;;;;;;2.70;1.77;;;53.10;1.00;;;;;;5089921;28;20236;-75
2022/08/04 12:30:36;;;;;;;1.92;1.50;;;52.50;1.00;;;;;;5092581;28;20645;-75
2022/08/04 12:33:09;;;;;;;4.00;1.75;;;52.20;1.00;;;;;;5093917;28;20212;-75
2022/08/04 12:35:55;;;;;;;2.85;1.70;;;52.30;1.00;;;;;;5109168;28;20190;-75
2022/08/04 12:38:24;;;;;;;3.90;1.40;;;53.20;1.00;;;;;;5113131;28;20191;-75
2022/08/04 12:40:52;;;;;;;3.65;1.90;;;53.60;1.00;;;;;;5112786;28;20370;-75
2022/08/04 12:43:37;;;;;;;3.05;1.80;;;54.50;1.00;;;;;;5112551;28;20169;-76
2022/08/04 12:46:07;;;;;;;2.13;1.58;;;54.80;1.00;;;;;;5113046;28;20163;-75
2022/08/04 12:48:35;;;;;;;2.63;1.50;;;54.50;1.00;;;;;;5111723;27;20302;-75
2022/08/04 12:51:02;;;;;;;2.55;1.77;;;54.40;1.00;;;;;;5110800;28;20247;-75
2022/08/04 12:53:36;;;;;;;6.13;1.58;;;54.00;1.00;;;;;;5112060;28;20194;-76
2022/08/04 12:56:02;;;;;;;1.85;1.40;;;53.80;1.00;;;;;;5098381;28;20641;-76
2022/08/04 12:58:32;;;;;;;2.88;1.65;;;52.40;1.00;;;;;;5090368;28;20169;-76
2022/08/04 13:01:05;;;;;;;3.35;1.67;;;52.30;1.00;;;;;;5091780;28;20577;-75
2022/08/04 13:03:38;;;;;;;2.58;1.67;;;51.90;1.00;;;;;;5099550;28;20173;-75
2022/08/04 13:06:06;;;;;;;2.33;1.63;;;51.90;1.00;;;;;;5072052;28;20156;-75
2022/08/04 13:08:36;;;;;;;2.10;1.50;;;52.50;1.00;;;;;;5071592;28;20165;-76
2022/08/04 13:11:03;;;;;;;2.30;1.40;;;52.90;1.00;;;;;;5071360;28;20212;-75
2022/08/04 13:13:32;;;;;;;3.88;1.45;;;53.70;1.00;;;;;;5071266;28;20277;-76
2022/08/04 13:16:06;;;;;;;5.03;1.40;;;53.90;1.00;;;;;;5072271;28;20163;-76
2022/08/04 13:18:35;;;;;;;3.13;1.40;;;54.40;1.00;;;;;;5070657;28;20533;-76
2022/08/04 13:21:15;;;;;;;3.25;1.70;;;54.50;1.00;;;;;;5071156;28;20668;-75
2022/08/04 13:23:45;;;;;;;2.97;1.70;;;54.00;1.00;;;;;;5071192;28;20277;-75
2022/08/04 13:26:13;;;;;;;2.60;1.60;;;53.80;1.00;;;;;;5070254;28;20194;-75
2022/08/04 13:28:41;;;;;;;2.58;1.67;;;52.40;1.00;;;;;;5070933;28;20174;-76
2022/08/04 13:31:11;;;;;;;3.00;1.83;;;52.40;1.00;;;;;;5077477;28;20743;-75
2022/08/04 13:33:41;;;;;;;3.45;1.85;;;51.70;1.00;;;;;;5099072;28;20204;-75
2022/08/04 13:36:08;;;;;;;2.40;1.70;;;51.20;1.00;;;;;;5099931;28;20836;-75
2022/08/04 13:38:37;;;;;;;4.07;1.70;;;51.30;1.00;;;;;;5090991;28;20225;-75
2022/08/04 13:41:05;;;;;;;3.20;1.77;;;51.50;1.00;;;;;;5090805;28;20188;-75
2022/08/04 13:43:42;;;;;;;4.05;1.67;;;51.30;1.00;;;;;;5090918;28;20175;-76
2022/08/04 13:46:12;;;;;;;2.50;1.70;;;50.70;1.00;;;;;;5091546;28;20175;-75
2022/08/04 13:48:40;;;;;;;2.15;1.50;;;50.30;1.00;;;;;;5090377;28;20660;-75
2022/08/04 13:51:08;;;;;;;2.30;1.50;;;50.60;1.00;;;;;;5090638;28;20195;-75
2022/08/04 13:53:37;;;;;;;2.30;1.50;;;50.60;1.00;;;;;;5090362;28;20191;-75
2022/08/04 13:56:07;;;;;;;2.45;1.50;;;50.80;1.00;;;;;;5091506;28;20167;-75